Terminal Aerodrome Forecast
Issued by NWS

Home | Current Version | Previous Version | Text Only | Print | Product List | Glossary On
Versions: 1 2 3 4 5 6 7 8 9 10 11 12 13 14 15 16 17 18
000
FTUS45 KBOI 061138
TAFTWF
TAF
KTWF 061138Z 0612/0712 VRB06KT P6SM VCSH FEW080 BKN120
     FM061800 05010KT P6SM VCTS SCT060CB BKN100
     FM070000 08010KT P6SM -SHRA BKN050 OVC100 PROB30 0700/0704
      -TSRA OVC050CB
     FM070600 04007KT P6SM -RA OVC040=

USA.gov is the U.S. government's official web portal to all federal, state and local government web resources and services.